createdAt,value
2023-03-07T00:00:28.097Z,100.00
2023-03-07T00:02:56.557Z,100.00
2023-03-07T00:05:24.955Z,100.00
2023-03-07T00:07:53.078Z,100.00
2023-03-07T00:10:21.549Z,100.00
2023-03-07T00:12:51.046Z,100.00
2023-03-07T00:15:19.071Z,100.00
2023-03-07T00:17:47.448Z,100.00
2023-03-07T00:20:16.046Z,100.00
2023-03-07T00:22:46.822Z,100.00
2023-03-07T00:25:15.868Z,100.00
2023-03-07T00:27:44.079Z,100.00
2023-03-07T00:30:13.452Z,100.00
2023-03-07T00:32:42.063Z,100.00
2023-03-07T00:35:10.371Z,100.00
2023-03-07T00:37:38.675Z,100.00
2023-03-07T00:40:09.364Z,100.00
2023-03-07T00:42:37.480Z,100.00
2023-03-07T00:45:06.010Z,100.00
2023-03-07T00:47:34.482Z,100.00
2023-03-07T00:50:02.745Z,100.00
2023-03-07T00:52:30.871Z,100.00
2023-03-07T00:54:59.690Z,100.00
2023-03-07T00:57:28.548Z,100.00
2023-03-07T00:59:56.811Z,100.00
2023-03-07T01:02:25.492Z,100.00
2023-03-07T01:04:53.799Z,100.00
2023-03-07T01:07:21.860Z,100.00
2023-03-07T01:09:53.207Z,100.00
2023-03-07T01:12:21.389Z,100.00
2023-03-07T01:14:51.145Z,100.00
2023-03-07T01:17:19.646Z,100.00
2023-03-07T01:19:47.829Z,100.00
2023-03-07T01:22:16.400Z,100.00
2023-03-07T01:24:44.594Z,100.00
2023-03-07T01:27:13.015Z,100.00
2023-03-07T01:29:41.470Z,100.00
2023-03-07T01:32:09.846Z,100.00
2023-03-07T01:34:38.180Z,100.00
2023-03-07T01:37:06.696Z,100.00
2023-03-07T01:39:35.391Z,100.00
2023-03-07T01:42:04.265Z,100.00
2023-03-07T01:45:15.308Z,100.00
2023-03-07T01:47:44.863Z,100.00
2023-03-07T01:50:16.456Z,100.00
2023-03-07T01:52:52.039Z,100.00
2023-03-07T01:55:27.176Z,100.00
2023-03-07T01:57:59.258Z,100.00
2023-03-07T02:00:30.590Z,100.00
2023-03-07T02:03:10.774Z,100.00
2023-03-07T02:06:08.858Z,100.00
2023-03-07T02:08:39.880Z,100.00
2023-03-07T02:11:08.977Z,100.00
2023-03-07T02:13:37.965Z,100.00
2023-03-07T02:16:07.742Z,100.00
2023-03-07T02:18:42.601Z,100.00
2023-03-07T02:21:16.910Z,100.00
2023-03-07T02:24:06.273Z,100.00
2023-03-07T02:26:48.076Z,100.00
2023-03-07T02:29:17.357Z,100.00
2023-03-07T02:31:47.126Z,100.00
2023-03-07T02:34:29.140Z,100.00
2023-03-07T02:37:35.583Z,100.00
2023-03-07T02:40:10.305Z,100.00
2023-03-07T02:42:42.620Z,100.00
2023-03-07T02:45:14.352Z,100.00
2023-03-07T02:47:43.862Z,100.00
2023-03-07T02:50:15.084Z,100.00
2023-03-07T02:52:44.095Z,100.00
2023-03-07T02:55:12.901Z,100.00
2023-03-07T02:57:41.799Z,100.00
2023-03-07T03:00:12.493Z,100.00
2023-03-07T03:02:41.031Z,100.00
2023-03-07T03:05:09.744Z,100.00
2023-03-07T03:07:38.308Z,100.00
2023-03-07T03:10:06.905Z,100.00
2023-03-07T03:12:35.582Z,100.00
2023-03-07T03:15:04.462Z,100.00
2023-03-07T03:17:33.514Z,100.00
2023-03-07T03:20:03.816Z,100.00
2023-03-07T03:22:32.971Z,100.00
2023-03-07T03:25:01.452Z,100.00
2023-03-07T03:27:32.534Z,100.00
2023-03-07T03:30:00.805Z,100.00
2023-03-07T03:32:30.150Z,100.00
2023-03-07T03:34:58.423Z,100.00
2023-03-07T03:37:27.267Z,100.00
2023-03-07T03:39:56.085Z,100.00
2023-03-07T03:42:24.637Z,100.00
2023-03-07T03:44:52.822Z,100.00
2023-03-07T03:47:21.221Z,100.00
2023-03-07T03:49:49.473Z,100.00
2023-03-07T03:52:17.751Z,100.00
2023-03-07T03:54:46.173Z,100.00
2023-03-07T03:57:17.882Z,100.00
2023-03-07T03:59:47.510Z,100.00
2023-03-07T04:02:16.421Z,100.00
2023-03-07T04:04:44.816Z,100.00
2023-03-07T04:07:12.988Z,100.00
2023-03-07T04:09:41.097Z,100.00
2023-03-07T04:12:09.705Z,100.00
2023-03-07T04:14:38.040Z,100.00
2023-03-07T04:17:06.200Z,100.00
2023-03-07T04:19:34.769Z,100.00
2023-03-07T04:22:03.003Z,100.00
2023-03-07T04:24:31.117Z,100.00
2023-03-07T04:26:59.747Z,100.00
2023-03-07T04:29:28.358Z,100.00
2023-03-07T04:31:57.395Z,100.00
2023-03-07T04:34:25.837Z,100.00
2023-03-07T04:36:54.102Z,100.00
2023-03-07T04:39:22.393Z,100.00
2023-03-07T04:41:50.950Z,100.00
2023-03-07T04:44:21.186Z,100.00
2023-03-07T04:46:49.402Z,100.00
2023-03-07T04:49:18.101Z,100.00
2023-03-07T04:51:46.571Z,100.00
2023-03-07T04:54:15.086Z,100.00
2023-03-07T04:56:43.822Z,100.00
2023-03-07T04:59:12.238Z,100.00
2023-03-07T05:01:41.034Z,100.00
2023-03-07T05:04:09.969Z,100.00
2023-03-07T05:06:39.564Z,100.00
2023-03-07T05:09:08.139Z,100.00
2023-03-07T05:11:36.740Z,100.00
2023-03-07T05:14:05.178Z,100.00
2023-03-07T05:16:34.238Z,99.70
2023-03-07T05:19:05.022Z,100.00
2023-03-07T05:21:34.403Z,99.00
2023-03-07T05:24:03.035Z,98.18
2023-03-07T05:26:31.558Z,98.65
2023-03-07T05:29:00.311Z,98.68
2023-03-07T05:31:28.953Z,99.57
2023-03-07T05:33:57.335Z,100.00
2023-03-07T05:36:25.727Z,100.00
2023-03-07T05:38:56.510Z,100.00
2023-03-07T05:41:25.446Z,100.00
2023-03-07T05:43:55.590Z,100.00
2023-03-07T05:46:24.679Z,100.00
2023-03-07T05:48:53.377Z,100.00
2023-03-07T05:51:21.950Z,100.00
2023-03-07T05:53:50.451Z,100.00
2023-03-07T05:56:18.694Z,100.00
2023-03-07T05:58:47.939Z,100.00
2023-03-07T06:01:16.383Z,100.00
2023-03-07T06:03:45.197Z,100.00
2023-03-07T06:06:14.261Z,100.00
2023-03-07T06:08:43.017Z,100.00
2023-03-07T06:11:11.531Z,100.00
2023-03-07T06:13:40.200Z,100.00
2023-03-07T06:16:08.753Z,100.00
2023-03-07T06:18:40.382Z,100.00
2023-03-07T06:21:10.402Z,100.00
2023-03-07T06:23:39.225Z,100.00
2023-03-07T06:26:08.488Z,100.00
2023-03-07T06:28:37.243Z,100.00
2023-03-07T06:31:15.613Z,100.00
2023-03-07T06:33:45.968Z,100.00
2023-03-07T06:36:16.738Z,100.00
2023-03-07T06:38:46.033Z,100.00
2023-03-07T06:41:14.397Z,100.00
2023-03-07T06:43:42.622Z,100.00
2023-03-07T06:46:11.628Z,100.00
2023-03-07T06:48:40.218Z,100.00
2023-03-07T06:51:11.095Z,100.00
2023-03-07T06:53:41.153Z,100.00
2023-03-07T06:56:10.106Z,100.00
2023-03-07T06:58:38.916Z,100.00
2023-03-07T07:01:07.565Z,100.00
2023-03-07T07:03:36.106Z,100.00
2023-03-07T07:06:04.776Z,100.00
2023-03-07T07:08:33.598Z,100.00
2023-03-07T07:11:01.801Z,100.00
2023-03-07T07:13:30.442Z,100.00
2023-03-07T07:16:05.439Z,100.00
2023-03-07T07:18:35.083Z,100.00
2023-03-07T07:21:05.433Z,100.00
2023-03-07T07:23:33.724Z,100.00
2023-03-07T07:26:02.172Z,100.00
2023-03-07T07:28:30.939Z,100.00
2023-03-07T07:31:00.260Z,100.00
2023-03-07T07:33:30.325Z,100.00
2023-03-07T07:35:59.105Z,100.00
2023-03-07T07:38:27.646Z,100.00
2023-03-07T07:40:56.384Z,100.00
2023-03-07T07:43:25.878Z,100.00
2023-03-07T07:45:55.654Z,100.00
2023-03-07T07:48:23.727Z,100.00
2023-03-07T07:50:52.276Z,100.00
2023-03-07T07:53:21.438Z,100.00
2023-03-07T07:55:50.355Z,100.00
2023-03-07T07:58:18.979Z,100.00
2023-03-07T08:00:47.516Z,100.00
2023-03-07T08:03:15.971Z,100.00
2023-03-07T08:05:48.159Z,100.00
2023-03-07T08:08:19.707Z,100.00
2023-03-07T08:10:48.367Z,100.00
2023-03-07T08:13:18.000Z,100.00
2023-03-07T08:15:46.457Z,100.00
2023-03-07T08:18:14.736Z,100.00
2023-03-07T08:20:43.326Z,100.00
2023-03-07T08:23:11.555Z,100.00
2023-03-07T08:25:40.282Z,100.00
2023-03-07T08:28:08.762Z,100.00
2023-03-07T08:30:37.349Z,100.00
2023-03-07T08:33:05.606Z,99.68
2023-03-07T08:35:34.107Z,98.95
2023-03-07T08:38:02.354Z,98.68
2023-03-07T08:40:32.183Z,98.73
2023-03-07T08:43:00.844Z,98.75
2023-03-07T08:45:29.291Z,99.52
2023-03-07T08:47:58.297Z,98.50
2023-03-07T08:50:28.630Z,96.20
2023-03-07T08:52:57.690Z,97.68
2023-03-07T08:55:26.162Z,96.01
2023-03-07T08:57:54.477Z,95.61
2023-03-07T09:00:23.023Z,96.83
2023-03-07T09:02:51.233Z,94.91
2023-03-07T09:05:20.234Z,93.74
2023-03-07T09:07:48.453Z,93.13
2023-03-07T09:10:19.314Z,93.91
2023-03-07T09:12:48.953Z,94.73
2023-03-07T09:15:18.326Z,91.83
2023-03-07T09:17:46.541Z,90.80
2023-03-07T09:20:18.098Z,90.07
2023-03-07T09:22:51.780Z,90.57
2023-03-07T09:25:20.300Z,90.38
2023-03-07T09:27:50.990Z,90.20
2023-03-07T09:30:20.616Z,85.45
2023-03-07T09:32:49.932Z,84.08
2023-03-07T09:35:18.754Z,85.52
2023-03-07T09:37:47.273Z,86.42
2023-03-07T09:40:23.421Z,86.43
2023-03-07T09:42:55.393Z,82.76
2023-03-07T09:45:38.776Z,84.08
2023-03-07T09:48:29.259Z,82.99
2023-03-07T09:51:10.291Z,84.10
2023-03-07T09:53:45.919Z,80.88
2023-03-07T09:56:38.049Z,75.17
2023-03-07T09:59:22.731Z,78.02
2023-03-07T10:02:29.947Z,76.30
2023-03-07T10:05:22.800Z,73.47
2023-03-07T10:07:53.000Z,72.05
2023-03-07T10:10:25.592Z,73.16
2023-03-07T10:13:23.916Z,73.85
2023-03-07T10:16:08.286Z,71.31
2023-03-07T10:18:46.566Z,68.53
2023-03-07T10:21:29.273Z,69.56
2023-03-07T10:24:37.160Z,68.37
2023-03-07T10:27:08.504Z,58.08
2023-03-07T10:29:49.406Z,55.54
2023-03-07T10:32:43.734Z,56.45
2023-03-07T10:35:11.941Z,54.97
2023-03-07T10:37:51.768Z,55.94
2023-03-07T10:40:34.985Z,54.57
2023-03-07T10:43:06.002Z,55.39
2023-03-07T10:45:34.292Z,54.59
2023-03-07T10:48:08.324Z,53.37
2023-03-07T10:50:43.818Z,53.73
2023-03-07T10:53:25.995Z,54.76
2023-03-07T10:56:10.180Z,54.19
2023-03-07T10:58:38.790Z,56.14
2023-03-07T11:01:07.354Z,55.22
2023-03-07T11:03:53.449Z,54.95
2023-03-07T11:06:40.361Z,54.11
2023-03-07T11:09:35.134Z,60.90
2023-03-07T11:12:06.456Z,56.28
2023-03-07T11:14:48.117Z,55.91
2023-03-07T11:17:27.205Z,55.75
2023-03-07T11:19:57.232Z,55.65
2023-03-07T11:22:34.051Z,56.51
2023-03-07T11:25:19.070Z,56.39
2023-03-07T11:27:57.993Z,55.87
2023-03-07T11:31:08.547Z,54.83
2023-03-07T11:33:44.297Z,55.39
2023-03-07T11:36:32.373Z,55.05
2023-03-07T11:39:01.435Z,55.31
2023-03-07T11:41:43.345Z,55.63
2023-03-07T11:44:30.048Z,54.82
2023-03-07T11:47:10.411Z,55.47
2023-03-07T11:49:54.828Z,55.45
2023-03-07T11:52:46.307Z,55.64
2023-03-07T11:55:32.371Z,54.80
2023-03-07T11:58:13.619Z,55.50
2023-03-07T12:01:13.227Z,55.13
2023-03-07T12:03:44.153Z,55.29
2023-03-07T12:06:27.485Z,54.65
2023-03-07T12:09:30.124Z,55.07
2023-03-07T12:12:27.585Z,55.25
2023-03-07T12:15:18.457Z,54.10
2023-03-07T12:17:55.264Z,56.05
2023-03-07T12:20:28.988Z,55.46
2023-03-07T12:23:15.549Z,55.72
2023-03-07T12:26:03.253Z,55.51
2023-03-07T12:28:44.411Z,55.31
2023-03-07T12:31:19.427Z,55.59
2023-03-07T12:34:11.007Z,55.52
2023-03-07T12:37:05.010Z,55.76
2023-03-07T12:39:43.173Z,55.19
2023-03-07T12:43:02.190Z,55.80
2023-03-07T12:45:49.086Z,56.61
2023-03-07T12:48:46.057Z,56.63
2023-03-07T12:51:29.416Z,59.26
2023-03-07T12:54:11.091Z,61.08
2023-03-07T12:56:58.494Z,62.80
2023-03-07T12:59:27.903Z,63.27
2023-03-07T13:02:04.801Z,64.60
2023-03-07T13:04:38.574Z,65.65
2023-03-07T13:07:14.553Z,66.17
2023-03-07T13:09:46.418Z,66.88
2023-03-07T13:12:20.096Z,68.00
2023-03-07T13:15:18.691Z,67.93
2023-03-07T13:17:46.692Z,68.45
2023-03-07T13:20:15.018Z,67.82
2023-03-07T13:22:43.490Z,67.05
2023-03-07T13:25:26.622Z,66.61
2023-03-07T13:28:00.533Z,66.21
2023-03-07T13:30:33.604Z,66.25
2023-03-07T13:33:06.735Z,67.12
2023-03-07T13:35:46.401Z,66.92
2023-03-07T13:38:24.059Z,66.76
2023-03-07T13:40:58.529Z,65.89
2023-03-07T13:43:28.246Z,65.67
2023-03-07T13:46:30.832Z,66.52
2023-03-07T13:49:00.951Z,65.70
2023-03-07T13:51:29.993Z,66.00
2023-03-07T13:54:10.795Z,66.38
2023-03-07T13:56:42.896Z,66.58
2023-03-07T13:59:21.658Z,66.95
2023-03-07T14:01:57.556Z,67.89
2023-03-07T14:04:40.405Z,68.03
2023-03-07T14:07:21.392Z,68.37
2023-03-07T14:09:53.731Z,69.23
2023-03-07T14:12:48.993Z,69.20
2023-03-07T14:15:22.994Z,68.20
2023-03-07T14:18:11.064Z,68.81
2023-03-07T14:20:51.955Z,68.70
2023-03-07T14:23:47.399Z,68.27
2023-03-07T14:26:15.872Z,68.75
2023-03-07T14:29:19.010Z,69.05
2023-03-07T14:31:49.611Z,69.67
2023-03-07T14:34:27.202Z,70.61
2023-03-07T14:37:05.909Z,70.02
2023-03-07T14:40:24.543Z,68.99
2023-03-07T14:43:05.293Z,68.45
2023-03-07T14:46:02.695Z,68.12
2023-03-07T14:48:56.846Z,68.78
2023-03-07T14:51:28.150Z,68.55
2023-03-07T14:53:58.028Z,68.82
2023-03-07T14:56:32.496Z,70.16
2023-03-07T14:59:04.904Z,69.14
2023-03-07T15:01:37.342Z,69.89
2023-03-07T15:04:26.073Z,69.35
2023-03-07T15:07:03.864Z,69.26
2023-03-07T15:09:34.173Z,70.28
2023-03-07T15:12:18.381Z,69.79
2023-03-07T15:14:48.790Z,69.56
2023-03-07T15:17:20.987Z,70.18
2023-03-07T15:19:54.647Z,70.36
2023-03-07T15:22:27.579Z,71.21
2023-03-07T15:24:56.478Z,70.57
2023-03-07T15:27:31.922Z,71.14
2023-03-07T15:30:03.546Z,71.58
2023-03-07T15:32:39.304Z,71.73
2023-03-07T15:35:08.008Z,72.28
2023-03-07T15:37:51.246Z,71.83
2023-03-07T15:40:33.717Z,71.67
2023-03-07T15:43:05.029Z,72.39
2023-03-07T15:45:42.130Z,71.95
2023-03-07T15:48:38.625Z,72.45
2023-03-07T15:51:30.995Z,73.15
2023-03-07T15:54:03.377Z,73.77
2023-03-07T15:56:36.343Z,74.42
2023-03-07T15:59:17.255Z,75.32
2023-03-07T16:01:46.281Z,75.86
2023-03-07T16:04:38.093Z,76.93
2023-03-07T16:07:07.891Z,78.26
2023-03-07T16:09:36.577Z,79.24
2023-03-07T16:12:12.552Z,80.12
2023-03-07T16:14:41.420Z,80.71
2023-03-07T16:17:42.325Z,81.31
2023-03-07T16:20:15.620Z,81.21
2023-03-07T16:22:44.534Z,81.34
2023-03-07T16:25:13.694Z,80.53
2023-03-07T16:27:47.508Z,79.80
2023-03-07T16:30:19.175Z,80.06
2023-03-07T16:32:47.471Z,80.27
2023-03-07T16:35:22.082Z,80.57
2023-03-07T16:37:51.305Z,80.65
2023-03-07T16:40:20.764Z,81.01
2023-03-07T16:42:50.812Z,80.83
2023-03-07T16:45:30.457Z,81.03
2023-03-07T16:48:02.572Z,81.47
2023-03-07T16:50:33.469Z,81.63
2023-03-07T16:53:01.967Z,81.52
2023-03-07T16:55:30.195Z,81.92
2023-03-07T16:58:01.966Z,81.89
2023-03-07T17:00:31.324Z,82.43
2023-03-07T17:03:03.345Z,82.39
2023-03-07T17:05:31.771Z,82.11
2023-03-07T17:08:00.914Z,82.07
2023-03-07T17:10:29.281Z,82.64
2023-03-07T17:12:58.945Z,83.14
2023-03-07T17:15:31.237Z,83.39
2023-03-07T17:18:00.721Z,83.11
2023-03-07T17:20:29.174Z,83.85
2023-03-07T17:22:57.527Z,84.67
2023-03-07T17:25:27.921Z,84.79
2023-03-07T17:27:59.687Z,83.66
2023-03-07T17:30:30.764Z,84.11
2023-03-07T17:32:59.820Z,82.71
2023-03-07T17:35:30.818Z,83.30
2023-03-07T17:38:00.669Z,83.93
2023-03-07T17:40:30.051Z,84.01
2023-03-07T17:42:59.370Z,83.75
2023-03-07T17:45:27.870Z,84.27
2023-03-07T17:47:56.924Z,83.94
2023-03-07T17:50:25.950Z,83.77
2023-03-07T17:52:55.379Z,84.27
2023-03-07T17:55:27.179Z,84.55
2023-03-07T17:57:55.706Z,84.07
2023-03-07T18:00:24.681Z,84.07
2023-03-07T18:02:53.720Z,84.33
2023-03-07T18:05:25.949Z,84.67
2023-03-07T18:07:55.371Z,84.87
2023-03-07T18:10:24.170Z,85.15
2023-03-07T18:12:55.747Z,85.43
2023-03-07T18:15:27.911Z,85.75
2023-03-07T18:17:56.203Z,85.76
2023-03-07T18:20:25.507Z,85.94
2023-03-07T18:22:53.576Z,86.70
2023-03-07T18:25:24.433Z,86.76
2023-03-07T18:27:53.960Z,87.00
2023-03-07T18:30:22.268Z,87.11
2023-03-07T18:32:55.481Z,86.98
2023-03-07T18:35:24.084Z,87.32
2023-03-07T18:37:53.196Z,87.50
2023-03-07T18:40:22.893Z,86.79
2023-03-07T18:42:51.872Z,86.83
2023-03-07T18:45:20.368Z,87.94
2023-03-07T18:47:48.950Z,86.89
2023-03-07T18:50:18.111Z,87.87
2023-03-07T18:52:46.807Z,87.67
2023-03-07T18:55:15.479Z,87.75
2023-03-07T18:57:44.282Z,88.39
2023-03-07T19:00:13.146Z,87.07
2023-03-07T19:02:41.634Z,87.10
2023-03-07T19:05:10.833Z,87.38
2023-03-07T19:07:39.273Z,86.93
2023-03-07T19:10:08.318Z,87.46
2023-03-07T19:12:37.574Z,87.44
2023-03-07T19:15:06.666Z,87.62
2023-03-07T19:17:39.696Z,87.66
2023-03-07T19:20:09.033Z,87.76
2023-03-07T19:22:37.591Z,88.19
2023-03-07T19:25:06.957Z,88.74
2023-03-07T19:27:36.220Z,89.28
2023-03-07T19:30:06.004Z,89.74
2023-03-07T19:32:35.390Z,90.03
2023-03-07T19:35:04.842Z,90.46
2023-03-07T19:37:36.056Z,91.05
2023-03-07T19:40:05.335Z,91.13
2023-03-07T19:42:33.600Z,91.44
2023-03-07T19:45:02.115Z,91.45
2023-03-07T19:47:31.025Z,91.33
2023-03-07T19:49:59.490Z,91.58
2023-03-07T19:52:27.971Z,92.09
2023-03-07T19:54:56.614Z,91.74
2023-03-07T19:57:25.110Z,91.79
2023-03-07T19:59:56.345Z,91.91
2023-03-07T20:02:26.477Z,91.66
2023-03-07T20:04:55.524Z,91.93
2023-03-07T20:07:23.925Z,91.48
2023-03-07T20:09:52.921Z,91.55
2023-03-07T20:12:21.585Z,91.69
2023-03-07T20:14:50.544Z,91.77
2023-03-07T20:17:19.117Z,91.54
2023-03-07T20:19:51.680Z,91.82
2023-03-07T20:22:20.860Z,91.42
2023-03-07T20:24:51.702Z,91.56
2023-03-07T20:27:22.025Z,91.33
2023-03-07T20:29:51.368Z,91.59
2023-03-07T20:32:21.054Z,91.97
2023-03-07T20:34:53.521Z,91.64
2023-03-07T20:37:22.395Z,91.04
2023-03-07T20:39:50.914Z,90.56
2023-03-07T20:42:19.519Z,91.10
2023-03-07T20:44:49.052Z,91.04
2023-03-07T20:47:17.268Z,91.36
2023-03-07T20:49:46.094Z,91.30
2023-03-07T20:52:15.320Z,91.16
2023-03-07T20:54:44.400Z,92.15
2023-03-07T20:57:13.127Z,90.83
2023-03-07T20:59:41.739Z,91.72
2023-03-07T21:02:11.669Z,91.39
2023-03-07T21:04:40.509Z,90.52
2023-03-07T21:07:09.004Z,91.22
2023-03-07T21:09:39.036Z,91.67
2023-03-07T21:12:08.812Z,91.79
2023-03-07T21:14:37.298Z,91.91
2023-03-07T21:17:06.008Z,92.30
2023-03-07T21:19:34.830Z,92.17
2023-03-07T21:22:04.078Z,92.23
2023-03-07T21:24:32.713Z,92.95
2023-03-07T21:27:03.205Z,92.06
2023-03-07T21:29:32.086Z,92.20
2023-03-07T21:32:00.683Z,92.21
2023-03-07T21:34:29.533Z,91.91
2023-03-07T21:36:58.111Z,92.44
2023-03-07T21:39:26.809Z,93.42
2023-03-07T21:42:01.512Z,93.48
2023-03-07T21:44:30.777Z,93.82
2023-03-07T21:46:59.337Z,94.01
2023-03-07T21:49:29.112Z,93.49
2023-03-07T21:51:58.552Z,94.38
2023-03-07T21:54:26.582Z,94.71
2023-03-07T21:56:54.629Z,94.65
2023-03-07T21:59:23.616Z,94.95
2023-03-07T22:01:52.002Z,95.14
2023-03-07T22:04:20.764Z,95.36
2023-03-07T22:06:49.275Z,94.57
2023-03-07T22:09:17.554Z,94.80
2023-03-07T22:11:45.998Z,95.09
2023-03-07T22:14:14.462Z,95.00
2023-03-07T22:16:42.506Z,95.29
2023-03-07T22:19:11.368Z,96.00
2023-03-07T22:21:40.181Z,96.45
2023-03-07T22:24:10.772Z,96.00
2023-03-07T22:26:39.164Z,96.31
2023-03-07T22:29:07.707Z,96.03
2023-03-07T22:31:39.006Z,96.58
2023-03-07T22:34:07.646Z,95.87
2023-03-07T22:36:35.997Z,96.62
2023-03-07T22:39:04.170Z,96.68
2023-03-07T22:41:34.420Z,96.62
2023-03-07T22:44:02.889Z,96.42
2023-03-07T22:46:31.153Z,96.88
2023-03-07T22:48:59.852Z,96.75
2023-03-07T22:51:28.904Z,96.94
2023-03-07T22:53:57.044Z,96.34
2023-03-07T22:56:27.561Z,95.83
2023-03-07T22:58:56.410Z,96.83
2023-03-07T23:01:27.412Z,96.94
2023-03-07T23:03:57.596Z,97.69
2023-03-07T23:06:31.366Z,97.77
2023-03-07T23:09:00.463Z,97.09
2023-03-07T23:11:31.053Z,96.52
2023-03-07T23:14:00.110Z,97.58
2023-03-07T23:16:30.171Z,96.70
2023-03-07T23:18:59.665Z,97.80
2023-03-07T23:21:31.368Z,98.69
2023-03-07T23:24:00.712Z,98.73
2023-03-07T23:26:35.065Z,98.80
2023-03-07T23:29:05.596Z,99.34
2023-03-07T23:31:37.621Z,99.80
2023-03-07T23:34:13.720Z,99.16
2023-03-07T23:36:42.212Z,99.70
2023-03-07T23:39:10.673Z,99.78
2023-03-07T23:41:39.008Z,99.76
2023-03-07T23:44:07.483Z,99.68
2023-03-07T23:46:36.373Z,99.09
2023-03-07T23:49:05.521Z,99.20
2023-03-07T23:51:34.183Z,99.67
2023-03-07T23:54:02.683Z,98.95
2023-03-07T23:56:30.905Z,99.84
2023-03-07T23:58:59.379Z,100.00
